createdAt,value
2022-08-03T00:00:34.978Z,5.70
2022-08-03T00:02:36.744Z,5.93
2022-08-03T00:04:38.838Z,6.20
2022-08-03T00:06:40.781Z,6.75
2022-08-03T00:08:42.500Z,6.97
2022-08-03T00:10:44.344Z,6.30
2022-08-03T00:12:46.220Z,5.88
2022-08-03T00:14:47.956Z,5.75
2022-08-03T00:16:49.957Z,5.80
2022-08-03T00:18:52.304Z,5.97
2022-08-03T00:20:54.098Z,6.07
2022-08-03T00:22:56.021Z,7.07
2022-08-03T00:24:57.803Z,6.65
2022-08-03T00:26:59.760Z,7.72
2022-08-03T00:29:01.673Z,7.75
2022-08-03T00:31:03.548Z,6.82
2022-08-03T00:33:05.611Z,6.88
2022-08-03T00:35:14.782Z,7.40
2022-08-03T00:37:40.796Z,6.53
2022-08-03T00:39:43.704Z,10.38
2022-08-03T00:41:45.488Z,8.00
2022-08-03T00:43:47.290Z,8.48
2022-08-03T00:45:49.110Z,9.13
2022-08-03T00:47:53.324Z,8.80
2022-08-03T00:49:55.152Z,6.68
2022-08-03T00:51:56.915Z,6.13
2022-08-03T00:53:58.987Z,6.00
2022-08-03T00:56:00.852Z,5.35
2022-08-03T00:58:03.618Z,5.50
2022-08-03T01:00:07.939Z,5.33
2022-08-03T01:02:09.699Z,5.80
2022-08-03T01:04:11.539Z,5.85
2022-08-03T01:06:19.483Z,6.40
2022-08-03T01:08:46.975Z,6.28
2022-08-03T01:11:10.726Z,5.97
2022-08-03T01:14:00.314Z,6.32
2022-08-03T01:16:15.633Z,5.72
2022-08-03T01:19:02.125Z,5.35
2022-08-03T01:21:10.474Z,5.07
2022-08-03T01:23:42.617Z,6.00
2022-08-03T01:25:55.442Z,5.78
2022-08-03T01:27:57.182Z,6.55
2022-08-03T01:30:05.160Z,6.68
2022-08-03T01:33:00.339Z,6.07
2022-08-03T01:34:50.970Z,4.90
2022-08-03T01:36:56.780Z,4.20
2022-08-03T01:39:01.922Z,3.78
2022-08-03T01:41:07.622Z,6.00
2022-08-03T01:43:14.953Z,6.57
2022-08-03T01:45:38.763Z,5.38
2022-08-03T01:47:42.271Z,4.82
2022-08-03T01:49:45.757Z,4.57
2022-08-03T01:52:02.681Z,5.43
2022-08-03T01:54:08.351Z,5.22
2022-08-03T01:58:14.663Z,4.57
2022-08-03T02:00:16.945Z,5.13
2022-08-03T02:02:32.763Z,4.70
2022-08-03T02:04:38.735Z,5.20
2022-08-03T02:07:01.911Z,5.90
2022-08-03T02:09:06.056Z,4.55
2022-08-03T02:11:08.312Z,4.88
2022-08-03T02:13:10.890Z,5.05
2022-08-03T02:15:15.432Z,5.50
2022-08-03T02:17:18.420Z,5.95
2022-08-03T02:19:42.503Z,6.18
2022-08-03T02:21:56.510Z,6.47
2022-08-03T02:24:04.091Z,5.97
2022-08-03T02:26:09.186Z,5.78
2022-08-03T02:28:16.536Z,5.93
2022-08-03T02:30:19.777Z,6.30
2022-08-03T02:32:28.018Z,5.90
2022-08-03T02:34:31.592Z,5.80
2022-08-03T02:36:38.062Z,6.90
2022-08-03T02:38:42.795Z,11.05
2022-08-03T02:40:46.312Z,8.15
2022-08-03T02:42:51.801Z,4.47
2022-08-03T02:44:57.240Z,3.78
2022-08-03T02:47:09.549Z,4.70
2022-08-03T02:49:35.341Z,5.10
2022-08-03T02:51:36.989Z,4.45
2022-08-03T02:53:40.816Z,5.43
2022-08-03T02:55:45.796Z,3.90
2022-08-03T02:57:50.436Z,4.38
2022-08-03T02:59:53.416Z,4.65
2022-08-03T03:01:55.926Z,4.35
2022-08-03T03:03:58.362Z,4.18
2022-08-03T03:06:01.191Z,4.93
2022-08-03T03:08:18.004Z,5.53
2022-08-03T03:10:24.926Z,4.80
2022-08-03T03:12:27.949Z,4.72
2022-08-03T03:14:33.626Z,5.55
2022-08-03T03:16:36.562Z,4.82
2022-08-03T03:18:39.687Z,4.53
2022-08-03T03:20:41.939Z,4.80
2022-08-03T03:22:45.376Z,5.47
2022-08-03T03:24:47.811Z,5.22
2022-08-03T03:26:50.119Z,5.03
2022-08-03T03:28:52.508Z,5.50
2022-08-03T03:30:54.432Z,4.72
2022-08-03T03:32:58.317Z,4.38
2022-08-03T03:35:00.548Z,5.20
2022-08-03T03:37:02.499Z,5.70
2022-08-03T03:39:15.445Z,6.10
2022-08-03T03:41:17.857Z,5.07
2022-08-03T03:43:23.943Z,5.35
2022-08-03T03:45:26.719Z,6.00
2022-08-03T03:47:32.147Z,5.30
2022-08-03T03:49:34.868Z,4.35
2022-08-03T03:51:36.989Z,4.40
2022-08-03T03:53:38.778Z,4.60
2022-08-03T03:55:57.812Z,4.20
2022-08-03T03:58:03.495Z,4.22
2022-08-03T04:00:05.902Z,5.05
2022-08-03T04:02:09.352Z,4.55
2022-08-03T04:04:11.373Z,4.68
2022-08-03T04:06:13.989Z,4.88
2022-08-03T04:08:18.934Z,6.15
2022-08-03T04:10:23.907Z,6.60
2022-08-03T04:12:28.376Z,7.28
2022-08-03T04:14:34.741Z,7.63
2022-08-03T04:16:43.625Z,9.95
2022-08-03T04:18:52.682Z,11.50
2022-08-03T04:20:55.835Z,12.40
2022-08-03T04:23:00.225Z,11.27
2022-08-03T04:25:05.429Z,10.82
2022-08-03T04:27:11.547Z,10.52
2022-08-03T04:29:14.751Z,11.10
2022-08-03T04:31:18.024Z,10.82
2022-08-03T04:33:21.821Z,10.40
2022-08-03T04:36:02.222Z,9.52
2022-08-03T04:37:53.581Z,9.55
2022-08-03T04:39:59.354Z,9.90
2022-08-03T04:42:08.667Z,9.70
2022-08-03T04:44:13.499Z,9.68
2022-08-03T04:46:16.326Z,8.73
2022-08-03T04:48:19.260Z,9.73
2022-08-03T04:50:22.140Z,10.20
2022-08-03T04:52:24.488Z,10.10
2022-08-03T04:54:26.366Z,8.30
2022-08-03T04:56:28.160Z,8.05
2022-08-03T04:58:29.967Z,7.78
2022-08-03T05:00:32.389Z,6.75
2022-08-03T05:02:34.221Z,7.72
2022-08-03T05:04:36.057Z,7.43
2022-08-03T05:06:47.915Z,7.40
2022-08-03T05:08:50.851Z,7.43
2022-08-03T05:10:52.812Z,8.18
2022-08-03T05:12:54.676Z,7.82
2022-08-03T05:14:56.415Z,7.70
2022-08-03T05:16:58.202Z,8.95
2022-08-03T05:19:00.075Z,9.70
2022-08-03T05:21:02.047Z,9.52
2022-08-03T05:23:03.894Z,8.85
2022-08-03T05:25:05.968Z,8.85
2022-08-03T05:27:07.701Z,8.13
2022-08-03T05:29:09.501Z,7.63
2022-08-03T05:31:11.552Z,7.82
2022-08-03T05:33:13.314Z,7.13
2022-08-03T05:35:57.883Z,7.55
2022-08-03T05:37:37.076Z,7.35
2022-08-03T05:39:38.909Z,8.10
2022-08-03T05:41:40.678Z,8.10
2022-08-03T05:43:42.503Z,7.55
2022-08-03T05:45:44.382Z,7.35
2022-08-03T05:47:46.338Z,7.53
2022-08-03T05:49:51.742Z,8.15
2022-08-03T05:52:00.496Z,7.45
2022-08-03T05:54:13.831Z,8.10
2022-08-03T05:56:16.791Z,7.60
2022-08-03T05:58:18.695Z,8.10
2022-08-03T06:00:20.484Z,7.95
2022-08-03T06:02:24.106Z,7.03
2022-08-03T06:04:25.998Z,8.60
2022-08-03T06:06:32.093Z,7.85
2022-08-03T06:08:34.916Z,8.45
2022-08-03T06:10:38.273Z,8.20
2022-08-03T06:14:42.294Z,8.73
2022-08-03T06:16:44.110Z,8.77
2022-08-03T06:18:45.950Z,8.98
2022-08-03T06:20:49.398Z,9.00
2022-08-03T06:23:00.455Z,8.82
2022-08-03T06:25:04.009Z,7.63
2022-08-03T06:27:07.010Z,7.38
2022-08-03T06:29:08.853Z,8.18
2022-08-03T06:31:11.972Z,7.30
2022-08-03T06:33:13.770Z,7.45
2022-08-03T06:35:15.533Z,7.45
2022-08-03T06:37:17.353Z,6.78
2022-08-03T06:39:19.326Z,7.35
2022-08-03T06:41:21.047Z,6.15
2022-08-03T06:43:23.033Z,7.47
2022-08-03T06:45:25.183Z,7.85
2022-08-03T06:47:33.668Z,6.80
2022-08-03T06:49:35.662Z,6.25
2022-08-03T06:52:03.051Z,6.47
2022-08-03T06:53:59.542Z,5.32
2022-08-03T06:56:01.404Z,5.35
2022-08-03T06:58:03.728Z,4.78
2022-08-03T07:00:11.861Z,4.85
2022-08-03T07:02:19.061Z,4.43
2022-08-03T07:04:21.449Z,4.03
2022-08-03T07:06:23.186Z,4.13
2022-08-03T07:08:33.725Z,3.75
2022-08-03T07:10:36.557Z,3.30
2022-08-03T07:12:55.606Z,3.22
2022-08-03T07:15:02.258Z,3.35
2022-08-03T07:17:11.461Z,3.30
2022-08-03T07:19:13.667Z,3.90
2022-08-03T07:21:15.560Z,3.28
2022-08-03T07:23:18.927Z,3.30
2022-08-03T07:25:21.297Z,3.25
2022-08-03T07:27:23.184Z,3.30
2022-08-03T07:29:25.239Z,3.53
2022-08-03T07:31:27.267Z,3.60
2022-08-03T07:33:36.387Z,3.67
2022-08-03T07:35:38.882Z,3.28
2022-08-03T07:37:40.622Z,3.22
2022-08-03T07:39:55.928Z,3.28
2022-08-03T07:41:57.639Z,2.60
2022-08-03T07:43:59.376Z,2.60
2022-08-03T07:46:03.062Z,2.70
2022-08-03T07:48:10.109Z,2.70
2022-08-03T07:50:13.839Z,2.30
2022-08-03T07:52:15.839Z,2.05
2022-08-03T07:54:17.735Z,2.20
2022-08-03T07:56:19.478Z,2.28
2022-08-03T07:58:24.183Z,1.85
2022-08-03T08:00:26.606Z,2.22
2022-08-03T08:02:28.357Z,2.35
2022-08-03T08:04:30.167Z,2.42
2022-08-03T08:06:32.152Z,2.00
2022-08-03T08:08:33.903Z,2.55
2022-08-03T08:10:36.001Z,1.77
2022-08-03T08:12:39.250Z,2.17
2022-08-03T08:16:42.686Z,1.70
2022-08-03T08:18:44.598Z,1.80
2022-08-03T08:20:46.422Z,1.90
2022-08-03T08:22:48.400Z,1.90
2022-08-03T08:24:52.177Z,1.70
2022-08-03T08:26:54.213Z,2.00
2022-08-03T08:28:56.210Z,1.88
2022-08-03T08:30:57.998Z,1.65
2022-08-03T08:32:59.975Z,1.55
2022-08-03T08:35:02.023Z,1.80
2022-08-03T08:37:04.008Z,1.70
2022-08-03T08:39:05.788Z,1.25
2022-08-03T08:41:08.213Z,1.50
2022-08-03T08:43:10.337Z,2.40
2022-08-03T08:45:12.112Z,2.03
2022-08-03T08:47:14.644Z,1.92
2022-08-03T08:49:22.977Z,1.75
2022-08-03T08:51:54.827Z,2.20
2022-08-03T08:53:53.597Z,1.92
2022-08-03T08:56:00.685Z,1.65
2022-08-03T08:58:05.872Z,1.33
2022-08-03T09:00:10.562Z,1.67
2022-08-03T09:02:12.573Z,2.22
2022-08-03T09:04:14.459Z,1.92
2022-08-03T09:06:16.683Z,1.75
2022-08-03T09:08:19.115Z,1.90
2022-08-03T09:10:21.077Z,1.90
2022-08-03T09:12:40.876Z,1.67
2022-08-03T09:15:00.769Z,1.60
2022-08-03T09:17:05.593Z,1.67
2022-08-03T09:19:13.754Z,1.42
2022-08-03T09:21:33.291Z,1.55
2022-08-03T09:24:02.162Z,1.50
2022-08-03T09:26:05.679Z,1.48
2022-08-03T09:28:52.706Z,1.40
2022-08-03T09:30:39.972Z,1.25
2022-08-03T09:32:41.945Z,1.50
2022-08-03T09:34:43.689Z,1.55
2022-08-03T09:36:47.328Z,1.33
2022-08-03T09:39:13.432Z,1.35
2022-08-03T09:41:18.889Z,1.63
2022-08-03T09:43:21.484Z,1.42
2022-08-03T09:45:27.315Z,1.00
2022-08-03T09:47:31.157Z,1.60
2022-08-03T09:49:33.197Z,1.40
2022-08-03T09:52:32.074Z,1.10
2022-08-03T09:53:58.819Z,1.45
2022-08-03T09:56:35.217Z,1.40
2022-08-03T09:58:26.899Z,1.13
2022-08-03T10:00:28.809Z,1.45
2022-08-03T10:02:30.817Z,1.05
2022-08-03T10:04:32.831Z,1.20
2022-08-03T10:06:34.555Z,1.45
2022-08-03T10:08:36.317Z,1.08
2022-08-03T10:10:45.395Z,1.00
2022-08-03T10:12:47.194Z,1.00
2022-08-03T10:14:49.447Z,1.10
2022-08-03T10:16:51.197Z,1.60
2022-08-03T10:18:52.933Z,1.15
2022-08-03T10:21:03.336Z,1.42
2022-08-03T10:23:05.731Z,1.10
2022-08-03T10:25:09.813Z,1.02
2022-08-03T10:27:13.517Z,1.38
2022-08-03T10:29:22.729Z,1.20
2022-08-03T10:31:25.373Z,1.20
2022-08-03T10:33:51.060Z,1.30
2022-08-03T10:35:57.420Z,1.20
2022-08-03T10:38:05.984Z,0.90
2022-08-03T10:40:10.052Z,0.90
2022-08-03T10:42:14.696Z,1.00
2022-08-03T10:44:21.554Z,1.17
2022-08-03T10:46:23.709Z,1.40
2022-08-03T10:48:26.221Z,1.15
2022-08-03T10:50:28.687Z,1.30
2022-08-03T10:52:33.710Z,1.17
2022-08-03T10:54:44.650Z,1.17
2022-08-03T10:56:49.774Z,1.00
2022-08-03T10:58:57.938Z,0.90
2022-08-03T11:01:00.587Z,1.00
2022-08-03T11:03:11.648Z,1.20
2022-08-03T11:05:27.837Z,1.50
2022-08-03T11:07:29.864Z,1.20
2022-08-03T11:09:42.576Z,1.00
2022-08-03T11:11:47.140Z,1.20
2022-08-03T11:14:02.216Z,1.10
2022-08-03T11:16:21.994Z,1.00
2022-08-03T11:18:26.831Z,1.00
2022-08-03T11:20:52.198Z,1.10
2022-08-03T11:22:54.077Z,1.08
2022-08-03T11:24:55.856Z,1.35
2022-08-03T11:27:15.979Z,1.17
2022-08-03T11:29:31.077Z,0.90
2022-08-03T11:31:49.160Z,1.02
2022-08-03T11:34:09.489Z,1.20
2022-08-03T11:36:11.516Z,1.10
2022-08-03T11:38:13.454Z,1.02
2022-08-03T11:40:32.959Z,1.10
2022-08-03T11:42:34.662Z,1.00
2022-08-03T11:44:42.874Z,1.30
2022-08-03T11:46:49.523Z,1.20
2022-08-03T11:48:51.353Z,1.13
2022-08-03T11:50:53.211Z,1.10
2022-08-03T11:52:55.114Z,1.20
2022-08-03T11:54:57.513Z,1.35
2022-08-03T11:56:59.756Z,1.00
2022-08-03T11:59:18.662Z,1.20
2022-08-03T12:01:24.908Z,1.33
2022-08-03T12:03:33.189Z,1.20
2022-08-03T12:05:52.917Z,1.20
2022-08-03T12:08:03.887Z,1.00
2022-08-03T12:10:13.019Z,1.23
2022-08-03T12:12:16.547Z,1.27
2022-08-03T12:14:49.275Z,1.33
2022-08-03T12:16:47.761Z,1.40
2022-08-03T12:19:16.129Z,1.60
2022-08-03T12:21:17.954Z,1.52
2022-08-03T12:23:20.303Z,1.42
2022-08-03T12:25:38.748Z,1.67
2022-08-03T12:27:41.869Z,1.45
2022-08-03T12:29:43.767Z,1.52
2022-08-03T12:32:00.589Z,1.40
2022-08-03T12:34:05.863Z,1.70
2022-08-03T12:36:10.930Z,1.67
2022-08-03T12:38:13.064Z,1.50
2022-08-03T12:40:19.292Z,2.03
2022-08-03T12:42:29.941Z,2.00
2022-08-03T12:44:33.590Z,2.10
2022-08-03T12:46:45.360Z,1.58
2022-08-03T12:49:06.753Z,1.80
2022-08-03T12:51:10.644Z,1.70
2022-08-03T12:53:12.376Z,1.63
2022-08-03T12:55:20.361Z,5.72
2022-08-03T12:57:22.231Z,3.85
2022-08-03T12:59:25.623Z,2.92
2022-08-03T13:01:37.650Z,1.70
2022-08-03T13:03:45.779Z,4.13
2022-08-03T13:05:51.680Z,2.00
2022-08-03T13:07:53.508Z,2.00
2022-08-03T13:09:56.615Z,2.10
2022-08-03T13:12:13.389Z,2.40
2022-08-03T13:14:16.780Z,2.13
2022-08-03T13:16:22.947Z,2.08
2022-08-03T13:18:24.976Z,2.15
2022-08-03T13:20:26.766Z,2.35
2022-08-03T13:22:28.534Z,2.15
2022-08-03T13:24:31.694Z,2.15
2022-08-03T13:26:33.750Z,1.85
2022-08-03T13:28:35.587Z,2.08
2022-08-03T13:30:38.057Z,1.90
2022-08-03T13:32:40.193Z,1.70
2022-08-03T13:34:42.405Z,2.25
2022-08-03T13:37:07.959Z,1.95
2022-08-03T13:39:05.948Z,1.90
2022-08-03T13:41:11.041Z,2.30
2022-08-03T13:43:12.764Z,2.15
2022-08-03T13:45:14.603Z,2.20
2022-08-03T13:47:16.423Z,2.03
2022-08-03T13:49:18.270Z,2.35
2022-08-03T13:51:22.602Z,2.58
2022-08-03T13:53:24.733Z,3.42
2022-08-03T13:55:26.749Z,3.08
2022-08-03T13:58:04.379Z,2.20
2022-08-03T13:59:50.800Z,2.20
2022-08-03T14:01:55.712Z,2.00
2022-08-03T14:03:57.739Z,2.58
2022-08-03T14:05:59.500Z,2.53
2022-08-03T14:08:04.821Z,2.25
2022-08-03T14:10:07.288Z,2.20
2022-08-03T14:12:10.352Z,2.80
2022-08-03T14:14:13.325Z,2.25
2022-08-03T14:16:17.016Z,2.40
2022-08-03T14:18:28.839Z,2.50
2022-08-03T14:20:38.926Z,2.50
2022-08-03T14:22:50.798Z,2.35
2022-08-03T14:24:52.787Z,2.08
2022-08-03T14:27:00.153Z,2.45
2022-08-03T14:29:08.805Z,2.50
2022-08-03T14:33:33.029Z,2.33
2022-08-03T14:35:34.841Z,2.38
2022-08-03T14:37:36.645Z,3.10
2022-08-03T14:42:00.212Z,2.80
2022-08-03T14:44:02.553Z,4.57
2022-08-03T14:46:04.461Z,3.30
2022-08-03T14:50:29.094Z,2.70
2022-08-03T14:50:36.250Z,2.42
2022-08-03T14:52:42.762Z,2.55
2022-08-03T14:54:45.583Z,2.60
2022-08-03T14:56:47.354Z,2.65
2022-08-03T14:58:49.117Z,4.57
2022-08-03T15:00:54.137Z,3.10
2022-08-03T15:02:55.911Z,2.70
2022-08-03T15:04:57.816Z,2.97
2022-08-03T15:06:59.702Z,3.50
2022-08-03T15:09:21.501Z,3.47
2022-08-03T15:11:23.155Z,3.50
2022-08-03T15:13:25.032Z,2.83
2022-08-03T15:15:26.754Z,3.22
2022-08-03T15:17:28.651Z,3.67
2022-08-03T15:20:00.265Z,2.92
2022-08-03T15:21:52.388Z,4.38
2022-08-03T15:23:54.122Z,3.88
2022-08-03T15:26:06.471Z,3.33
2022-08-03T15:28:18.096Z,3.40
2022-08-03T15:30:19.906Z,2.97
2022-08-03T15:32:21.780Z,3.08
2022-08-03T15:34:23.502Z,3.03
2022-08-03T15:36:25.241Z,3.30
2022-08-03T15:38:27.067Z,3.22
2022-08-03T15:40:28.913Z,3.15
2022-08-03T15:42:32.914Z,3.25
2022-08-03T15:44:34.753Z,4.07
2022-08-03T15:46:36.802Z,3.30
2022-08-03T15:48:39.606Z,3.30
2022-08-03T15:50:41.499Z,3.40
2022-08-03T15:52:45.529Z,3.17
2022-08-03T15:54:47.570Z,3.03
2022-08-03T15:56:49.399Z,3.35
2022-08-03T15:59:03.693Z,3.35
2022-08-03T16:01:17.723Z,2.97
2022-08-03T16:03:21.643Z,3.03
2022-08-03T16:05:23.535Z,3.28
2022-08-03T16:07:25.697Z,3.20
2022-08-03T16:09:43.224Z,3.40
2022-08-03T16:11:45.528Z,3.28
2022-08-03T16:14:13.726Z,3.08
2022-08-03T16:16:09.427Z,3.65
2022-08-03T16:18:11.168Z,5.60
2022-08-03T16:20:29.257Z,4.18
2022-08-03T16:22:40.748Z,4.05
2022-08-03T16:24:45.187Z,3.50
2022-08-03T16:26:47.442Z,3.50
2022-08-03T16:28:49.308Z,3.13
2022-08-03T16:30:51.076Z,3.47
2022-08-03T16:32:52.920Z,3.30
2022-08-03T16:34:54.833Z,3.25
2022-08-03T16:36:56.611Z,3.55
2022-08-03T16:38:58.678Z,3.33
2022-08-03T16:41:00.536Z,3.58
2022-08-03T16:43:10.016Z,3.40
2022-08-03T16:45:20.813Z,3.70
2022-08-03T16:47:22.883Z,3.78
2022-08-03T16:49:53.063Z,3.80
2022-08-03T16:51:50.350Z,3.88
2022-08-03T16:54:07.195Z,5.22
2022-08-03T16:56:10.674Z,5.35
2022-08-03T16:58:13.031Z,5.60
2022-08-03T17:00:33.574Z,8.45
2022-08-03T17:02:36.734Z,6.03
2022-08-03T17:04:40.250Z,5.95
2022-08-03T17:06:45.069Z,4.22
2022-08-03T17:08:52.344Z,4.72
2022-08-03T17:10:57.357Z,4.35
2022-08-03T17:12:59.071Z,4.50
2022-08-03T17:15:01.331Z,4.15
2022-08-03T17:17:08.369Z,5.37
2022-08-03T17:19:18.478Z,4.88
2022-08-03T17:21:26.477Z,4.63
2022-08-03T17:23:52.162Z,5.53
2022-08-03T17:26:02.263Z,5.55
2022-08-03T17:28:48.658Z,5.70
2022-08-03T17:30:28.470Z,5.88
2022-08-03T17:32:42.420Z,5.32
2022-08-03T17:34:46.681Z,5.45
2022-08-03T17:37:05.359Z,8.90
2022-08-03T17:39:07.469Z,5.95
2022-08-03T17:44:14.207Z,5.93
2022-08-03T17:45:42.286Z,6.30
2022-08-03T17:47:57.493Z,6.10
2022-08-03T17:49:59.943Z,5.10
2022-08-03T17:52:04.774Z,4.70
2022-08-03T17:54:30.079Z,9.52
2022-08-03T17:56:57.261Z,7.30
2022-08-03T17:59:52.110Z,5.78
2022-08-03T18:02:29.858Z,7.30
2022-08-03T18:04:38.237Z,6.45
2022-08-03T18:06:55.800Z,7.65
2022-08-03T18:08:59.959Z,8.68
2022-08-03T18:13:58.723Z,7.72
2022-08-03T18:16:02.494Z,5.88
2022-08-03T18:18:10.278Z,6.90
2022-08-03T18:20:34.603Z,6.57
2022-08-03T18:22:34.894Z,6.97
2022-08-03T18:24:37.727Z,7.57
2022-08-03T18:26:42.608Z,7.60
2022-08-03T18:28:53.108Z,7.30
2022-08-03T18:30:55.402Z,7.28
2022-08-03T18:33:01.150Z,7.82
2022-08-03T18:35:19.962Z,7.95
2022-08-03T18:37:26.622Z,7.70
2022-08-03T18:39:28.817Z,7.90
2022-08-03T18:41:34.566Z,8.80
2022-08-03T18:43:46.629Z,7.85
2022-08-03T18:45:57.734Z,6.93
2022-08-03T18:48:30.021Z,7.70
2022-08-03T18:50:39.051Z,7.78
2022-08-03T18:52:52.920Z,8.25
2022-08-03T18:55:33.404Z,8.20
2022-08-03T18:57:47.281Z,7.97
2022-08-03T19:00:24.231Z,7.68
2022-08-03T19:02:41.721Z,8.20
2022-08-03T19:04:54.168Z,8.40
2022-08-03T19:07:03.135Z,8.50
2022-08-03T19:09:06.582Z,9.15
2022-08-03T19:11:28.175Z,8.73
2022-08-03T19:13:55.753Z,9.52
2022-08-03T19:16:02.704Z,10.60
2022-08-03T19:18:10.461Z,8.80
2022-08-03T19:20:12.975Z,9.32
2022-08-03T19:22:15.941Z,9.20
2022-08-03T19:24:21.988Z,9.60
2022-08-03T19:26:30.856Z,10.48
2022-08-03T19:28:34.891Z,10.95
2022-08-03T19:30:39.429Z,10.00
2022-08-03T19:32:48.182Z,11.90
2022-08-03T19:34:51.509Z,12.85
2022-08-03T19:36:55.240Z,11.70
2022-08-03T19:38:59.658Z,10.60
2022-08-03T19:41:04.261Z,9.80
2022-08-03T19:43:20.693Z,8.93
2022-08-03T19:46:05.217Z,10.75
2022-08-03T19:47:56.390Z,11.30
2022-08-03T19:50:13.968Z,11.50
2022-08-03T19:52:20.566Z,11.65
2022-08-03T19:54:32.124Z,11.52
2022-08-03T19:56:34.757Z,15.15
2022-08-03T19:58:37.528Z,14.73
2022-08-03T20:00:40.792Z,17.33
2022-08-03T20:02:50.995Z,14.30
2022-08-03T20:04:53.485Z,13.15
2022-08-03T20:06:58.105Z,11.82
2022-08-03T20:09:00.091Z,10.35
2022-08-03T20:11:02.343Z,10.55
2022-08-03T20:13:08.014Z,10.73
2022-08-03T20:15:10.088Z,9.82
2022-08-03T20:17:12.308Z,11.45
2022-08-03T20:19:22.819Z,10.68
2022-08-03T20:21:27.640Z,13.13
2022-08-03T20:23:38.095Z,12.65
2022-08-03T20:26:00.636Z,12.95
2022-08-03T20:28:14.021Z,12.45
2022-08-03T20:30:16.666Z,12.95
2022-08-03T20:32:24.694Z,12.10
2022-08-03T20:34:26.763Z,12.35
2022-08-03T20:36:29.027Z,11.60
2022-08-03T20:38:32.226Z,10.90
2022-08-03T20:40:45.803Z,11.20
2022-08-03T20:42:47.717Z,10.60
2022-08-03T20:45:04.482Z,11.25
2022-08-03T20:47:10.532Z,11.68
2022-08-03T20:51:19.597Z,11.18
2022-08-03T20:53:57.442Z,11.73
2022-08-03T20:55:53.763Z,11.68
2022-08-03T20:58:04.912Z,12.70
2022-08-03T21:00:08.303Z,12.40
2022-08-03T21:02:13.773Z,12.45
2022-08-03T21:04:22.043Z,12.45
2022-08-03T21:06:28.853Z,11.80
2022-08-03T21:08:31.299Z,12.48
2022-08-03T21:10:37.925Z,12.38
2022-08-03T21:12:48.132Z,12.13
2022-08-03T21:13:03.947Z,8.23
2022-08-03T21:15:01.699Z,12.50
2022-08-03T21:17:14.017Z,12.35
2022-08-03T21:19:22.177Z,12.88
2022-08-03T21:21:24.432Z,13.13
2022-08-03T21:23:45.392Z,12.13
2022-08-03T21:25:51.722Z,12.40
2022-08-03T21:29:55.606Z,13.20
2022-08-03T21:31:59.430Z,13.48
2022-08-03T21:34:04.860Z,12.77
2022-08-03T21:36:07.346Z,13.38
2022-08-03T21:38:09.271Z,12.77
2022-08-03T21:40:13.156Z,12.55
2022-08-03T21:42:14.890Z,13.05
2022-08-03T21:44:17.914Z,13.20
2022-08-03T21:46:33.141Z,13.43
2022-08-03T21:48:38.525Z,12.90
2022-08-03T21:50:42.320Z,13.13
2022-08-03T21:52:46.379Z,13.50
2022-08-03T21:54:49.940Z,13.10
2022-08-03T21:59:06.138Z,12.88
2022-08-03T22:01:09.508Z,12.82
2022-08-03T22:03:17.374Z,13.45
2022-08-03T22:05:28.975Z,12.63
2022-08-03T22:07:42.532Z,13.20
2022-08-03T22:09:51.045Z,13.38
2022-08-03T22:11:53.637Z,14.20
2022-08-03T22:13:55.348Z,14.00
2022-08-03T22:15:57.617Z,14.15
2022-08-03T22:17:59.892Z,14.13
2022-08-03T22:20:02.178Z,14.20
2022-08-03T22:22:04.708Z,14.30
2022-08-03T22:24:07.395Z,14.00
2022-08-03T22:26:15.290Z,13.80
2022-08-03T22:28:17.091Z,14.43
2022-08-03T22:30:19.873Z,14.32
2022-08-03T22:32:21.719Z,14.60
2022-08-03T22:34:26.275Z,14.13
2022-08-03T22:36:30.163Z,13.70
2022-08-03T22:38:32.808Z,14.13
2022-08-03T22:40:34.720Z,14.00
2022-08-03T22:42:37.350Z,14.13
2022-08-03T22:44:40.347Z,14.23
2022-08-03T22:46:42.707Z,15.18
2022-08-03T22:48:46.746Z,14.23
2022-08-03T22:50:48.941Z,14.60
2022-08-03T22:52:51.187Z,15.38
2022-08-03T22:54:55.566Z,15.23
2022-08-03T22:56:58.454Z,15.95
2022-08-03T22:59:00.501Z,15.27
2022-08-03T23:01:08.088Z,14.95
2022-08-03T23:03:10.538Z,15.48
2022-08-03T23:06:01.980Z,15.75
2022-08-03T23:07:49.609Z,14.82
2022-08-03T23:09:51.893Z,14.48
2022-08-03T23:11:55.757Z,14.80
2022-08-03T23:13:59.762Z,15.15
2022-08-03T23:16:04.651Z,14.85
2022-08-03T23:18:07.557Z,14.48
2022-08-03T23:20:09.803Z,15.13
2022-08-03T23:22:17.096Z,14.27
2022-08-03T23:24:36.333Z,15.10
2022-08-03T23:26:38.545Z,14.85
2022-08-03T23:28:45.424Z,14.40
2022-08-03T23:30:50.156Z,14.60
2022-08-03T23:32:54.802Z,15.05
2022-08-03T23:35:00.826Z,14.55
2022-08-03T23:37:05.596Z,14.07
2022-08-03T23:39:08.704Z,14.60
2022-08-03T23:41:10.920Z,14.85
2022-08-03T23:43:18.413Z,15.45
2022-08-03T23:45:37.966Z,14.85
2022-08-03T23:47:46.999Z,15.27
2022-08-03T23:49:49.646Z,15.88
2022-08-03T23:52:29.067Z,15.13
2022-08-03T23:55:12.349Z,14.38
2022-08-03T23:57:52.560Z,13.95
